Back to Top

Language: 

My Weather Underground Personal Weather Station Historical Data with Graphs...

Delerius Weather Station Historical Data
Daily Summary for May 5, 2017 Units:  English    Metric   Both
« Previous Day
Next Day »
Daily Weekly Monthly Yearly Custom
  High: Low: Average:
Temperature: 61.5 °F 41.9 °F 50.4 °F
Dew Point: 44.6 °F 34.0 °F 40.4 °F
Humidity: 95 % 41 % 72 %
Wind Speed: 12.0 mph 0.0 mph 6.3 mph
Wind Gust: 29.0 mph - -
Wind:- - ENE
Pressure: 30.38 in 30.12 in -
Precipitation: 0.00 in    
Historical Graphs
 
 
Tabular Data for May 5, 2017
Time Temperature Dew Point Pressure Wind Wind Speed Wind Gust Humidity Rainfall Rate (Hourly) solar Conditions
00:01 43.5 °F 40.2 °F 30.38 in NE 4.0 mph 9.0 mph 88 % 0.00 in 0 W/m2
00:06 43.3 °F 40.0 °F 30.38 in NE 4.0 mph 11.0 mph 88 % 0.00 in 0 W/m2
00:11 43.3 °F 40.3 °F 30.38 in NE 4.0 mph 11.0 mph 89 % 0.00 in 0 W/m2
00:16 43.3 °F 40.3 °F 30.38 in NE 4.0 mph 8.0 mph 89 % 0.00 in 0 W/m2
00:21 43.3 °F 40.3 °F 30.38 in NE 2.0 mph 8.0 mph 89 % 0.00 in 0 W/m2
00:26 43.3 °F 40.3 °F 30.38 in ENE 1.0 mph 8.0 mph 89 % 0.00 in 0 W/m2
00:31 43.3 °F 40.6 °F 30.38 in NE 3.0 mph 10.0 mph 90 % 0.00 in 0 W/m2
00:35 43.3 °F 40.6 °F 30.38 in NE 3.0 mph 10.0 mph 90 % 0.00 in 0 W/m2
00:40 43.3 °F 40.6 °F 30.38 in NE 4.0 mph 12.0 mph 90 % 0.00 in 0 W/m2
00:45 43.3 °F 40.6 °F 30.38 in NE 5.0 mph 12.0 mph 90 % 0.00 in 0 W/m2
00:50 43.2 °F 40.4 °F 30.38 in NE 4.0 mph 11.0 mph 90 % 0.00 in 0 W/m2
00:55 43.2 °F 40.4 °F 30.37 in NE 4.0 mph 10.0 mph 90 % 0.00 in 0 W/m2
01:00 43.2 °F 40.4 °F 30.37 in NE 4.0 mph 10.0 mph 90 % 0.00 in 0 W/m2
01:05 43.2 °F 40.7 °F 30.37 in NE 5.0 mph 11.0 mph 91 % 0.00 in 0 W/m2
01:10 43.2 °F 40.7 °F 30.37 in NNE 4.0 mph 11.0 mph 91 % 0.00 in 0 W/m2
01:15 43.0 °F 40.5 °F 30.37 in NNE 4.0 mph 11.0 mph 91 % 0.00 in 0 W/m2
01:20 43.0 °F 40.5 °F 30.38 in NNE 5.0 mph 11.0 mph 91 % 0.00 in 0 W/m2
01:25 43.0 °F 40.5 °F 30.37 in NNE 5.0 mph 10.0 mph 91 % 0.00 in 0 W/m2
01:30 42.8 °F 40.4 °F 30.37 in NE 4.0 mph 10.0 mph 91 % 0.00 in 0 W/m2
01:35 42.8 °F 40.6 °F 30.37 in NNE 4.0 mph 11.0 mph 92 % 0.00 in 0 W/m2
01:40 42.6 °F 40.5 °F 30.37 in NNE 4.0 mph 11.0 mph 92 % 0.00 in 0 W/m2
01:45 42.6 °F 40.5 °F 30.37 in NE 4.0 mph 10.0 mph 92 % 0.00 in 0 W/m2
01:50 42.6 °F 40.5 °F 30.37 in NNE 6.0 mph 11.0 mph 92 % 0.00 in 0 W/m2
01:55 42.6 °F 40.5 °F 30.37 in NE 5.0 mph 11.0 mph 92 % 0.00 in 0 W/m2
02:00 42.6 °F 40.5 °F 30.37 in NE 4.0 mph 12.0 mph 92 % 0.00 in 0 W/m2
02:05 42.6 °F 40.5 °F 30.37 in NE 5.0 mph 12.0 mph 92 % 0.00 in 0 W/m2
02:10 42.6 °F 40.5 °F 30.37 in NE 6.0 mph 13.0 mph 92 % 0.00 in 0 W/m2
02:15 42.4 °F 40.3 °F 30.37 in NE 6.0 mph 13.0 mph 92 % 0.00 in 0 W/m2
02:21 42.4 °F 40.3 °F 30.37 in NE 5.0 mph 11.0 mph 92 % 0.00 in 0 W/m2
02:26 42.4 °F 40.6 °F 30.37 in NE 5.0 mph 12.0 mph 93 % 0.00 in 0 W/m2
02:31 42.4 °F 40.6 °F 30.37 in ENE 4.0 mph 12.0 mph 93 % 0.00 in 0 W/m2
02:36 42.4 °F 40.6 °F 30.36 in ENE 4.0 mph 10.0 mph 93 % 0.00 in 0 W/m2
02:41 42.3 °F 40.4 °F 30.36 in ENE 4.0 mph 9.0 mph 93 % 0.00 in 0 W/m2
02:46 42.3 °F 40.4 °F 30.36 in ENE 4.0 mph 10.0 mph 93 % 0.00 in 0 W/m2
02:51 42.3 °F 40.4 °F 30.36 in ENE 4.0 mph 11.0 mph 93 % 0.00 in 0 W/m2
02:56 42.3 °F 40.4 °F 30.37 in ENE 4.0 mph 11.0 mph 93 % 0.00 in 0 W/m2
03:01 42.3 °F 40.4 °F 30.36 in ENE 3.0 mph 9.0 mph 93 % 0.00 in 0 W/m2
03:06 42.3 °F 40.4 °F 30.36 in ENE 2.0 mph 10.0 mph 93 % 0.00 in 0 W/m2
03:11 42.3 °F 40.4 °F 30.36 in East 2.0 mph 10.0 mph 93 % 0.00 in 0 W/m2
03:16 42.3 °F 40.4 °F 30.36 in East 2.0 mph 7.0 mph 93 % 0.00 in 0 W/m2
03:21 42.1 °F 40.5 °F 30.36 in East 2.0 mph 6.0 mph 94 % 0.00 in 0 W/m2
03:26 42.1 °F 40.2 °F 30.36 in SE 1.0 mph 7.0 mph 93 % 0.00 in 0 W/m2
03:31 42.1 °F 40.2 °F 30.36 in East 1.0 mph 7.0 mph 93 % 0.00 in 0 W/m2
03:36 42.1 °F 40.2 °F 30.36 in ENE 1.0 mph 8.0 mph 93 % 0.00 in 0 W/m2
03:41 41.9 °F 40.0 °F 30.36 in NE 1.0 mph 8.0 mph 93 % 0.00 in 0 W/m2
03:46 41.9 °F 40.3 °F 30.36 in NE 1.0 mph 6.0 mph 94 % 0.00 in 0 W/m2
03:51 41.9 °F 40.3 °F 30.36 in NE 1.0 mph 6.0 mph 94 % 0.00 in 0 W/m2
03:56 41.9 °F 40.3 °F 30.36 in NE 1.0 mph 9.0 mph 94 % 0.00 in 0 W/m2
04:01 42.1 °F 40.5 °F 30.36 in ENE 2.0 mph 9.0 mph 94 % 0.00 in 0 W/m2
04:06 42.1 °F 40.5 °F 30.36 in ENE 1.0 mph 7.0 mph 94 % 0.00 in 0 W/m2
04:08 42.1 °F 40.5 °F 30.36 in Calm   5.0 mph 94 % 0.00 in 0 W/m2
04:13 42.1 °F 40.5 °F 30.36 in Calm   4.0 mph 94 % 0.00 in 0 W/m2
04:19 42.3 °F 40.7 °F 30.36 in ENE 1.0 mph 6.0 mph 94 % 0.00 in 0 W/m2
04:24 42.3 °F 40.7 °F 30.36 in ENE 1.0 mph 6.0 mph 94 % 0.00 in 0 W/m2
04:29 42.3 °F 40.7 °F 30.36 in Calm   4.0 mph 94 % 0.00 in 0 W/m2
04:34 42.3 °F 40.7 °F 30.36 in NNE 1.0 mph 6.0 mph 94 % 0.00 in 0 W/m2
04:39 42.3 °F 40.7 °F 30.35 in NNE 1.0 mph 7.0 mph 94 % 0.00 in 0 W/m2
04:44 42.3 °F 40.7 °F 30.35 in NNE 2.0 mph 8.0 mph 94 % 0.00 in 0 W/m2
04:49 42.4 °F 40.8 °F 30.35 in NNE 2.0 mph 8.0 mph 94 % 0.00 in 0 W/m2
04:54 42.4 °F 40.8 °F 30.35 in NNE 1.0 mph 5.0 mph 94 % 0.00 in 0 W/m2
04:59 42.4 °F 40.8 °F 30.35 in NNE 1.0 mph 7.0 mph 94 % 0.00 in 0 W/m2
05:04 42.4 °F 40.8 °F 30.35 in ENE 2.0 mph 7.0 mph 94 % 0.00 in 0 W/m2
05:09 42.4 °F 40.8 °F 30.35 in SE 2.0 mph 6.0 mph 94 % 0.00 in 0 W/m2
05:14 42.4 °F 40.8 °F 30.35 in Calm   6.0 mph 94 % 0.00 in 0 W/m2
05:19 42.6 °F 41.0 °F 30.35 in NNE 1.0 mph 8.0 mph 94 % 0.00 in 0 W/m2
05:24 42.6 °F 41.0 °F 30.35 in NNE 1.0 mph 8.0 mph 94 % 0.00 in 0 W/m2
05:29 42.4 °F 40.8 °F 30.35 in Calm   5.0 mph 94 % 0.00 in 5 W/m2
05:34 42.4 °F 40.8 °F 30.35 in NE 1.0 mph 5.0 mph 94 % 0.00 in 7 W/m2
05:39 42.4 °F 40.8 °F 30.35 in Calm   4.0 mph 94 % 0.00 in 9 W/m2
05:44 42.4 °F 40.8 °F 30.35 in NNE 2.0 mph 7.0 mph 94 % 0.00 in 11 W/m2
05:49 42.4 °F 40.8 °F 30.35 in NNE 2.0 mph 7.0 mph 94 % 0.00 in 14 W/m2
05:54 42.6 °F 41.0 °F 30.35 in NNE 1.0 mph 6.0 mph 94 % 0.00 in 14 W/m2
05:59 42.6 °F 41.3 °F 30.35 in NE 2.0 mph 8.0 mph 95 % 0.00 in 16 W/m2
06:04 42.6 °F 41.3 °F 30.34 in NNE 3.0 mph 8.0 mph 95 % 0.00 in 21 W/m2
06:09 42.6 °F 41.3 °F 30.35 in NE 3.0 mph 8.0 mph 95 % 0.00 in 21 W/m2
06:14 42.6 °F 41.3 °F 30.35 in NNE 3.0 mph 11.0 mph 95 % 0.00 in 25 W/m2
06:19 42.6 °F 41.3 °F 30.35 in NNE 4.0 mph 14.0 mph 95 % 0.00 in 42 W/m2
06:24 42.8 °F 41.5 °F 30.35 in NNE 4.0 mph 14.0 mph 95 % 0.00 in 44 W/m2
06:29 43.0 °F 41.6 °F 30.35 in NE 4.0 mph 11.0 mph 95 % 0.00 in 44 W/m2
06:34 43.0 °F 41.6 °F 30.34 in NE 5.0 mph 10.0 mph 95 % 0.00 in 40 W/m2
06:39 43.2 °F 41.8 °F 30.35 in NE 5.0 mph 11.0 mph 95 % 0.00 in 60 W/m2
06:45 43.2 °F 41.8 °F 30.34 in NE 4.0 mph 11.0 mph 95 % 0.00 in 63 W/m2
06:50 43.3 °F 42.0 °F 30.34 in NE 3.0 mph 12.0 mph 95 % 0.00 in 77 W/m2
06:55 43.3 °F 42.0 °F 30.34 in NE 4.0 mph 12.0 mph 95 % 0.00 in 86 W/m2
07:00 43.5 °F 42.2 °F 30.34 in NE 5.0 mph 14.0 mph 95 % 0.00 in 81 W/m2
07:05 43.9 °F 42.5 °F 30.34 in NE 5.0 mph 14.0 mph 95 % 0.00 in 130 W/m2
07:10 44.1 °F 42.7 °F 30.34 in NE 5.0 mph 14.0 mph 95 % 0.00 in 200 W/m2
07:15 44.2 °F 42.6 °F 30.34 in NE 6.0 mph 14.0 mph 94 % 0.00 in 156 W/m2
07:20 44.8 °F 43.2 °F 30.34 in NE 5.0 mph 11.0 mph 94 % 0.00 in 236 W/m2
07:25 45.1 °F 43.5 °F 30.34 in NE 5.0 mph 15.0 mph 94 % 0.00 in 246 W/m2
07:30 45.3 °F 43.1 °F 30.33 in NE 8.0 mph 15.0 mph 92 % 0.00 in 278 W/m2
07:35 45.7 °F 43.5 °F 30.34 in NE 8.0 mph 14.0 mph 92 % 0.00 in 285 W/m2
07:40 46.0 °F 43.6 °F 30.33 in NE 7.0 mph 14.0 mph 91 % 0.00 in 278 W/m2
07:45 46.4 °F 43.6 °F 30.33 in NE 8.0 mph 16.0 mph 90 % 0.00 in 297 W/m2
07:50 46.8 °F 43.7 °F 30.33 in NE 9.0 mph 16.0 mph 89 % 0.00 in 315 W/m2
07:55 47.1 °F 43.7 °F 30.33 in NE 9.0 mph 16.0 mph 88 % 0.00 in 325 W/m2
08:00 47.3 °F 43.6 °F 30.33 in NE 9.0 mph 19.0 mph 87 % 0.00 in 276 W/m2
08:05 47.7 °F 43.7 °F 30.33 in NE 8.0 mph 19.0 mph 86 % 0.00 in 359 W/m2
08:10 48.0 °F 43.7 °F 30.33 in NE 7.0 mph 16.0 mph 85 % 0.00 in 371 W/m2
08:15 48.4 °F 44.1 °F 30.33 in NE 7.0 mph 16.0 mph 85 % 0.00 in 381 W/m2
08:20 48.9 °F 44.3 °F 30.33 in NE 7.0 mph 13.0 mph 84 % 0.00 in 397 W/m2
08:25 49.1 °F 44.2 °F 30.33 in NE 6.0 mph 18.0 mph 83 % 0.00 in 406 W/m2
08:30 49.6 °F 44.4 °F 30.33 in NE 6.0 mph 18.0 mph 82 % 0.00 in 422 W/m2
08:35 49.8 °F 44.2 °F 30.33 in NE 7.0 mph 15.0 mph 81 % 0.00 in 443 W/m2
08:40 50.2 °F 44.6 °F 30.33 in NE 6.0 mph 15.0 mph 81 % 0.00 in 461 W/m2
08:45 50.5 °F 44.6 °F 30.33 in NE 6.0 mph 13.0 mph 80 % 0.00 in 483 W/m2
08:50 50.5 °F 43.6 °F 30.33 in ENE 7.0 mph 16.0 mph 77 % 0.00 in 483 W/m2
08:55 50.9 °F 44.3 °F 30.33 in ENE 7.0 mph 16.0 mph 78 % 0.00 in 501 W/m2
09:00 51.4 °F 44.5 °F 30.33 in ENE 6.0 mph 12.0 mph 77 % 0.00 in 517 W/m2
09:05 51.8 °F 44.5 °F 30.33 in ENE 6.0 mph 12.0 mph 76 % 0.00 in 536 W/m2
09:10 52.0 °F 44.3 °F 30.33 in ENE 7.0 mph 16.0 mph 75 % 0.00 in 547 W/m2
09:15 52.0 °F 44.3 °F 30.33 in ENE 8.0 mph 16.0 mph 75 % 0.00 in 564 W/m2
09:20 52.2 °F 44.1 °F 30.33 in ENE 7.0 mph 15.0 mph 74 % 0.00 in 591 W/m2
09:25 52.3 °F 44.3 °F 30.32 in NE 7.0 mph 16.0 mph 74 % 0.00 in 608 W/m2
09:30 53.2 °F 44.4 °F 30.33 in ENE 7.0 mph 16.0 mph 72 % 0.00 in 610 W/m2
09:35 53.2 °F 43.7 °F 30.32 in ENE 8.0 mph 16.0 mph 70 % 0.00 in 629 W/m2
09:41 53.2 °F 44.1 °F 30.32 in ENE 9.0 mph 18.0 mph 71 % 0.00 in 580 W/m2
09:46 53.4 °F 44.6 °F 30.32 in ENE 7.0 mph 18.0 mph 72 % 0.00 in 724 W/m2
09:51 54.0 °F 44.0 °F 30.32 in ENE 6.0 mph 11.0 mph 69 % 0.00 in 694 W/m2
09:56 54.3 °F 44.4 °F 30.32 in ENE 6.0 mph 13.0 mph 69 % 0.00 in 663 W/m2
10:01 54.3 °F 44.4 °F 30.32 in ENE 7.0 mph 13.0 mph 69 % 0.00 in 766 W/m2
10:06 54.7 °F 43.9 °F 30.32 in ENE 7.0 mph 18.0 mph 67 % 0.00 in 775 W/m2
10:11 54.3 °F 43.2 °F 30.32 in ENE 8.0 mph 18.0 mph 66 % 0.00 in 775 W/m2
10:16 53.8 °F 43.1 °F 30.31 in ENE 9.0 mph 18.0 mph 67 % 0.00 in 759 W/m2
10:21 53.8 °F 43.5 °F 30.31 in ENE 8.0 mph 14.0 mph 68 % 0.00 in 842 W/m2
10:26 54.3 °F 43.6 °F 30.31 in ENE 8.0 mph 15.0 mph 67 % 0.00 in 218 W/m2
10:31 54.7 °F 43.5 °F 30.31 in ENE 8.0 mph 15.0 mph 66 % 0.00 in 751 W/m2
10:36 54.9 °F 43.7 °F 30.31 in ENE 8.0 mph 15.0 mph 66 % 0.00 in 759 W/m2
10:41 55.4 °F 43.4 °F 30.30 in ENE 8.0 mph 18.0 mph 64 % 0.00 in 770 W/m2
10:46 55.4 °F 42.2 °F 30.30 in ENE 8.0 mph 18.0 mph 61 % 0.00 in 770 W/m2
10:51 55.2 °F 42.8 °F 30.30 in ENE 9.0 mph 18.0 mph 63 % 0.00 in 786 W/m2
10:56 55.8 °F 42.5 °F 30.30 in ENE 8.0 mph 20.0 mph 61 % 0.00 in 272 W/m2
11:01 55.8 °F 43.3 °F 30.30 in ENE 7.0 mph 20.0 mph 63 % 0.00 in 833 W/m2
11:06 56.3 °F 43.0 °F 30.29 in ENE 7.0 mph 19.0 mph 61 % 0.00 in 930 W/m2
11:11 56.3 °F 43.0 °F 30.29 in ENE 8.0 mph 22.0 mph 61 % 0.00 in 875 W/m2
11:16 56.5 °F 42.8 °F 30.29 in ENE 9.0 mph 22.0 mph 60 % 0.00 in 200 W/m2
11:21 56.3 °F 42.6 °F 30.29 in ENE 8.0 mph 18.0 mph 60 % 0.00 in 875 W/m2
11:26 56.7 °F 43.8 °F 30.28 in ENE 7.0 mph 16.0 mph 62 % 0.00 in 279 W/m2
11:31 56.7 °F 42.0 °F 30.28 in ENE 8.0 mph 20.0 mph 58 % 0.00 in 914 W/m2
11:32 56.8 °F 42.2 °F 30.28 in ENE 8.0 mph 20.0 mph 58 % 0.00 in 914 W/m2
11:37 56.7 °F 41.1 °F 30.28 in ENE 10.0 mph 20.0 mph 56 % 0.00 in 914 W/m2
11:42 57.0 °F 41.5 °F 30.28 in ENE 10.0 mph 19.0 mph 56 % 0.00 in 262 W/m2
11:47 57.2 °F 42.1 °F 30.28 in ENE 8.0 mph 19.0 mph 57 % 0.00 in 976 W/m2
11:52 56.8 °F 41.8 °F 30.28 in ENE 9.0 mph 21.0 mph 57 % 0.00 in 1028 W/m2
11:57 56.8 °F 41.8 °F 30.27 in ENE 11.0 mph 21.0 mph 57 % 0.00 in 916 W/m2
12:02 57.4 °F 40.9 °F 30.27 in ENE 9.0 mph 20.0 mph 54 % 0.00 in 925 W/m2
12:03 57.6 °F 41.5 °F 30.27 in ENE 9.0 mph 20.0 mph 55 % 0.00 in 925 W/m2
12:08 58.3 °F 41.7 °F 30.27 in East 9.0 mph 20.0 mph 54 % 0.00 in 886 W/m2
12:13 58.6 °F 42.0 °F 30.27 in East 9.0 mph 18.0 mph 54 % 0.00 in 932 W/m2
12:18 58.3 °F 40.7 °F 30.27 in ENE 10.0 mph 19.0 mph 52 % 0.00 in 213 W/m2
12:23 57.4 °F 41.3 °F 30.27 in ENE 10.0 mph 20.0 mph 55 % 0.00 in 919 W/m2
12:28 57.4 °F 41.3 °F 30.26 in ENE 8.0 mph 20.0 mph 55 % 0.00 in 942 W/m2
12:33 57.7 °F 41.2 °F 30.26 in ENE 8.0 mph 18.0 mph 54 % 0.00 in 255 W/m2
12:38 57.7 °F 42.1 °F 30.26 in ENE 8.0 mph 18.0 mph 56 % 0.00 in 313 W/m2
12:43 57.6 °F 41.5 °F 30.26 in ENE 9.0 mph 18.0 mph 55 % 0.00 in 128 W/m2
12:48 57.4 °F 41.8 °F 30.26 in ENE 9.0 mph 18.0 mph 56 % 0.00 in 954 W/m2
12:53 57.9 °F 42.3 °F 30.26 in ENE 9.0 mph 16.0 mph 56 % 0.00 in 951 W/m2
12:58 58.3 °F 41.7 °F 30.25 in ENE 9.0 mph 19.0 mph 54 % 0.00 in 1000 W/m2
13:03 58.6 °F 40.6 °F 30.25 in ENE 9.0 mph 19.0 mph 51 % 0.00 in 882 W/m2
13:08 59.0 °F 39.9 °F 30.25 in East 9.0 mph 18.0 mph 49 % 0.00 in 942 W/m2
13:13 59.4 °F 40.2 °F 30.25 in East 9.0 mph 18.0 mph 49 % 0.00 in 909 W/m2
13:18 59.4 °F 40.7 °F 30.25 in East 8.0 mph 15.0 mph 50 % 0.00 in 891 W/m2
13:23 59.7 °F 40.0 °F 30.25 in East 8.0 mph 16.0 mph 48 % 0.00 in 923 W/m2
13:28 59.7 °F 40.0 °F 30.24 in ENE 10.0 mph 20.0 mph 48 % 0.00 in 895 W/m2
13:33 59.5 °F 39.3 °F 30.24 in ENE 10.0 mph 20.0 mph 47 % 0.00 in 939 W/m2
13:38 59.5 °F 39.3 °F 30.24 in East 9.0 mph 18.0 mph 47 % 0.00 in 902 W/m2
13:43 59.5 °F 39.8 °F 30.24 in East 10.0 mph 18.0 mph 48 % 0.00 in 895 W/m2
13:48 59.7 °F 40.5 °F 30.23 in ENE 10.0 mph 18.0 mph 49 % 0.00 in 939 W/m2
13:53 60.3 °F 40.5 °F 30.23 in East 8.0 mph 19.0 mph 48 % 0.00 in 875 W/m2
13:58 60.6 °F 40.8 °F 30.23 in East 8.0 mph 19.0 mph 48 % 0.00 in 891 W/m2
14:03 61.0 °F 38.9 °F 30.23 in East 10.0 mph 20.0 mph 44 % 0.00 in 930 W/m2
14:08 61.0 °F 37.7 °F 30.23 in East 10.0 mph 20.0 mph 42 % 0.00 in 893 W/m2
14:13 61.3 °F 38.0 °F 30.22 in East 9.0 mph 21.0 mph 42 % 0.00 in 933 W/m2
14:18 61.5 °F 38.2 °F 30.22 in East 10.0 mph 23.0 mph 42 % 0.00 in 860 W/m2
14:23 61.2 °F 38.5 °F 30.22 in East 10.0 mph 23.0 mph 43 % 0.00 in 888 W/m2
14:28 61.0 °F 38.3 °F 30.22 in ENE 10.0 mph 23.0 mph 43 % 0.00 in 877 W/m2
14:33 60.8 °F 38.1 °F 30.22 in ENE 9.0 mph 21.0 mph 43 % 0.00 in 926 W/m2
14:38 61.0 °F 38.9 °F 30.22 in ENE 10.0 mph 21.0 mph 44 % 0.00 in 216 W/m2
14:43 59.9 °F 37.3 °F 30.21 in ENE 10.0 mph 21.0 mph 43 % 0.00 in 244 W/m2
14:48 59.9 °F 37.3 °F 30.21 in ENE 11.0 mph 24.0 mph 43 % 0.00 in 837 W/m2
14:53 60.1 °F 38.7 °F 30.21 in East 10.0 mph 24.0 mph 45 % 0.00 in 846 W/m2
14:58 60.3 °F 37.7 °F 30.20 in East 10.0 mph 20.0 mph 43 % 0.00 in 809 W/m2
15:03 60.6 °F 38.0 °F 30.21 in East 11.0 mph 20.0 mph 43 % 0.00 in 821 W/m2
15:08 60.6 °F 38.0 °F 30.20 in East 10.0 mph 20.0 mph 43 % 0.00 in 837 W/m2
15:13 60.6 °F 38.6 °F 30.21 in East 9.0 mph 20.0 mph 44 % 0.00 in 160 W/m2
15:18 60.4 °F 37.8 °F 30.20 in ENE 9.0 mph 18.0 mph 43 % 0.00 in 844 W/m2
15:23 60.3 °F 38.2 °F 30.20 in ENE 9.0 mph 20.0 mph 44 % 0.00 in 174 W/m2
15:28 59.7 °F 36.0 °F 30.20 in East 11.0 mph 24.0 mph 41 % 0.00 in 775 W/m2
15:33 59.7 °F 37.2 °F 30.20 in East 10.0 mph 24.0 mph 43 % 0.00 in 751 W/m2
15:38 60.1 °F 37.5 °F 30.20 in East 11.0 mph 24.0 mph 43 % 0.00 in 816 W/m2
15:44 59.5 °F 37.0 °F 30.20 in ENE 12.0 mph 24.0 mph 43 % 0.00 in 735 W/m2
15:49 59.5 °F 36.4 °F 30.19 in ENE 11.0 mph 21.0 mph 42 % 0.00 in 731 W/m2
15:54 59.4 °F 35.6 °F 30.19 in ENE 10.0 mph 23.0 mph 41 % 0.00 in 705 W/m2
15:59 59.4 °F 35.6 °F 30.19 in ENE 10.0 mph 23.0 mph 41 % 0.00 in 691 W/m2
16:04 59.5 °F 37.0 °F 30.19 in East 10.0 mph 19.0 mph 43 % 0.00 in 680 W/m2
16:09 59.7 °F 36.6 °F 30.19 in East 10.0 mph 21.0 mph 42 % 0.00 in 670 W/m2
16:14 59.7 °F 37.2 °F 30.19 in East 10.0 mph 21.0 mph 43 % 0.00 in 649 W/m2
16:19 59.9 °F 36.7 °F 30.18 in East 10.0 mph 22.0 mph 42 % 0.00 in 629 W/m2
16:24 59.7 °F 37.2 °F 30.18 in East 11.0 mph 22.0 mph 43 % 0.00 in 622 W/m2
16:29 59.4 °F 36.8 °F 30.18 in ENE 12.0 mph 23.0 mph 43 % 0.00 in 599 W/m2
16:34 59.2 °F 37.3 °F 30.18 in ENE 11.0 mph 23.0 mph 44 % 0.00 in 582 W/m2
16:39 59.0 °F 37.1 °F 30.18 in ENE 11.0 mph 22.0 mph 44 % 0.00 in 571 W/m2
16:44 59.0 °F 37.7 °F 30.18 in East 11.0 mph 22.0 mph 45 % 0.00 in 559 W/m2
16:49 58.8 °F 37.5 °F 30.18 in East 10.0 mph 22.0 mph 45 % 0.00 in 552 W/m2
16:54 58.6 °F 37.3 °F 30.18 in East 11.0 mph 23.0 mph 45 % 0.00 in 531 W/m2
16:59 58.5 °F 37.7 °F 30.17 in ENE 11.0 mph 29.0 mph 46 % 0.00 in 517 W/m2
17:04 58.5 °F 37.7 °F 30.18 in ENE 11.0 mph 29.0 mph 46 % 0.00 in 504 W/m2
17:09 58.3 °F 37.0 °F 30.17 in East 10.0 mph 22.0 mph 45 % 0.00 in 490 W/m2
17:14 58.3 °F 37.6 °F 30.17 in East 9.0 mph 20.0 mph 46 % 0.00 in 473 W/m2
17:19 58.3 °F 37.0 °F 30.17 in East 10.0 mph 20.0 mph 45 % 0.00 in 457 W/m2
17:24 58.1 °F 37.4 °F 30.17 in East 9.0 mph 19.0 mph 46 % 0.00 in 448 W/m2
17:26 58.3 °F 37.6 °F 30.17 in East 9.0 mph 19.0 mph 46 % 0.00 in 441 W/m2
17:31 58.3 °F 37.0 °F 30.17 in ENE 9.0 mph 18.0 mph 45 % 0.00 in 427 W/m2
17:36 57.9 °F 37.2 °F 30.17 in East 8.0 mph 18.0 mph 46 % 0.00 in 411 W/m2
17:41 57.7 °F 37.1 °F 30.17 in East 8.0 mph 16.0 mph 46 % 0.00 in 399 W/m2
17:46 57.9 °F 37.2 °F 30.17 in East 8.0 mph 16.0 mph 46 % 0.00 in 385 W/m2
17:51 57.7 °F 36.5 °F 30.17 in East 8.0 mph 19.0 mph 45 % 0.00 in 371 W/m2
17:56 57.6 °F 36.4 °F 30.17 in ENE 9.0 mph 19.0 mph 45 % 0.00 in 355 W/m2
18:01 57.4 °F 36.2 °F 30.16 in ENE 8.0 mph 15.0 mph 45 % 0.00 in 341 W/m2
18:06 57.4 °F 35.6 °F 30.16 in East 7.0 mph 19.0 mph 44 % 0.00 in 329 W/m2
18:11 57.0 °F 34.1 °F 30.16 in ENE 8.0 mph 20.0 mph 42 % 0.00 in 311 W/m2
18:16 56.8 °F 34.0 °F 30.16 in ENE 9.0 mph 21.0 mph 42 % 0.00 in 301 W/m2
18:21 56.5 °F 34.8 °F 30.16 in ENE 9.0 mph 22.0 mph 44 % 0.00 in 285 W/m2
18:26 55.9 °F 34.9 °F 30.16 in ENE 10.0 mph 22.0 mph 45 % 0.00 in 269 W/m2
18:31 55.8 °F 36.4 °F 30.16 in East 9.0 mph 20.0 mph 48 % 0.00 in 253 W/m2
18:36 55.6 °F 36.7 °F 30.16 in East 8.0 mph 16.0 mph 49 % 0.00 in 236 W/m2
18:41 55.2 °F 37.4 °F 30.16 in ENE 9.0 mph 16.0 mph 51 % 0.00 in 221 W/m2
18:46 55.0 °F 37.7 °F 30.16 in ENE 8.0 mph 16.0 mph 52 % 0.00 in 207 W/m2
18:51 54.9 °F 38.5 °F 30.15 in East 7.0 mph 15.0 mph 54 % 0.00 in 192 W/m2
18:56 54.9 °F 38.5 °F 30.15 in ENE 8.0 mph 15.0 mph 54 % 0.00 in 179 W/m2
19:01 54.5 °F 38.7 °F 30.16 in ENE 8.0 mph 15.0 mph 55 % 0.00 in 165 W/m2
19:06 54.1 °F 38.8 °F 30.15 in ENE 8.0 mph 16.0 mph 56 % 0.00 in 153 W/m2
19:11 53.8 °F 38.9 °F 30.16 in ENE 9.0 mph 16.0 mph 57 % 0.00 in 139 W/m2
19:16 53.6 °F 39.2 °F 30.15 in ENE 9.0 mph 19.0 mph 58 % 0.00 in 130 W/m2
19:22 53.2 °F 39.3 °F 30.16 in ENE 9.0 mph 19.0 mph 59 % 0.00 in 118 W/m2
19:27 53.2 °F 39.3 °F 30.15 in ENE 8.0 mph 18.0 mph 59 % 0.00 in 105 W/m2
19:32 52.9 °F 38.9 °F 30.15 in ENE 8.0 mph 15.0 mph 59 % 0.00 in 91 W/m2
19:37 52.7 °F 39.2 °F 30.16 in ENE 7.0 mph 15.0 mph 60 % 0.00 in 83 W/m2
19:42 52.3 °F 39.3 °F 30.16 in ENE 7.0 mph 16.0 mph 61 % 0.00 in 70 W/m2
19:47 51.8 °F 38.8 °F 30.15 in ENE 8.0 mph 19.0 mph 61 % 0.00 in 60 W/m2
19:52 51.4 °F 39.3 °F 30.15 in ENE 8.0 mph 19.0 mph 63 % 0.00 in 47 W/m2
19:57 51.1 °F 39.3 °F 30.15 in ENE 7.0 mph 15.0 mph 64 % 0.00 in 25 W/m2
20:02 50.7 °F 39.4 °F 30.15 in East 6.0 mph 12.0 mph 65 % 0.00 in 23 W/m2
20:07 50.5 °F 39.6 °F 30.15 in East 5.0 mph 11.0 mph 66 % 0.00 in 19 W/m2
20:12 50.5 °F 40.0 °F 30.15 in East 5.0 mph 13.0 mph 67 % 0.00 in 18 W/m2
20:17 50.2 °F 39.6 °F 30.15 in ENE 7.0 mph 15.0 mph 67 % 0.00 in 16 W/m2
20:22 49.8 °F 39.7 °F 30.15 in ENE 8.0 mph 15.0 mph 68 % 0.00 in 14 W/m2
20:27 49.5 °F 39.7 °F 30.15 in ENE 8.0 mph 14.0 mph 69 % 0.00 in 11 W/m2
20:32 49.3 °F 39.9 °F 30.15 in ENE 6.0 mph 11.0 mph 70 % 0.00 in 9 W/m2
20:37 48.9 °F 39.6 °F 30.15 in ENE 6.0 mph 14.0 mph 70 % 0.00 in 7 W/m2
20:42 48.7 °F 39.4 °F 30.15 in ENE 6.0 mph 14.0 mph 70 % 0.00 in 5 W/m2
20:47 48.6 °F 39.6 °F 30.15 in ENE 5.0 mph 11.0 mph 71 % 0.00 in 0 W/m2
20:52 48.4 °F 39.8 °F 30.15 in ENE 5.0 mph 12.0 mph 72 % 0.00 in 0 W/m2
20:57 48.2 °F 39.9 °F 30.15 in ENE 5.0 mph 12.0 mph 73 % 0.00 in 0 W/m2
21:02 48.0 °F 40.1 °F 30.15 in ENE 5.0 mph 10.0 mph 74 % 0.00 in 0 W/m2
21:07 47.8 °F 40.0 °F 30.15 in ENE 5.0 mph 10.0 mph 74 % 0.00 in 0 W/m2
21:12 47.7 °F 40.1 °F 30.15 in ENE 5.0 mph 10.0 mph 75 % 0.00 in 0 W/m2
21:17 47.5 °F 40.3 °F 30.15 in ENE 4.0 mph 9.0 mph 76 % 0.00 in 0 W/m2
21:22 47.3 °F 40.5 °F 30.15 in ENE 4.0 mph 11.0 mph 77 % 0.00 in 0 W/m2
21:27 47.1 °F 40.3 °F 30.15 in ENE 4.0 mph 11.0 mph 77 % 0.00 in 0 W/m2
21:32 47.1 °F 40.6 °F 30.15 in ENE 4.0 mph 8.0 mph 78 % 0.00 in 0 W/m2
21:37 46.9 °F 40.8 °F 30.15 in ENE 5.0 mph 14.0 mph 79 % 0.00 in 0 W/m2
21:42 46.8 °F 40.6 °F 30.15 in ENE 6.0 mph 14.0 mph 79 % 0.00 in 0 W/m2
21:44 46.8 °F 40.9 °F 30.15 in ENE 6.0 mph 14.0 mph 80 % 0.00 in 0 W/m2
21:49 46.6 °F 40.7 °F 30.15 in ENE 5.0 mph 10.0 mph 80 % 0.00 in 0 W/m2
21:54 46.4 °F 40.6 °F 30.15 in ENE 5.0 mph 10.0 mph 80 % 0.00 in 0 W/m2
21:59 46.2 °F 40.7 °F 30.15 in ENE 4.0 mph 12.0 mph 81 % 0.00 in 0 W/m2
22:04 46.2 °F 40.7 °F 30.15 in ENE 5.0 mph 12.0 mph 81 % 0.00 in 0 W/m2
22:09 46.0 °F 40.9 °F 30.15 in ENE 6.0 mph 11.0 mph 82 % 0.00 in 0 W/m2
22:14 46.0 °F 40.9 °F 30.14 in ENE 5.0 mph 11.0 mph 82 % 0.00 in 0 W/m2
22:19 45.9 °F 41.0 °F 30.14 in ENE 5.0 mph 12.0 mph 83 % 0.00 in 0 W/m2
22:24 45.7 °F 40.8 °F 30.14 in ENE 5.0 mph 12.0 mph 83 % 0.00 in 0 W/m2
22:30 45.7 °F 41.1 °F 30.14 in ENE 5.0 mph 11.0 mph 84 % 0.00 in 0 W/m2
22:35 45.5 °F 40.9 °F 30.14 in ENE 5.0 mph 11.0 mph 84 % 0.00 in 0 W/m2
22:40 45.5 °F 41.3 °F 30.14 in ENE 5.0 mph 10.0 mph 85 % 0.00 in 0 W/m2
22:45 45.3 °F 41.1 °F 30.14 in ENE 5.0 mph 10.0 mph 85 % 0.00 in 0 W/m2
22:50 45.1 °F 40.9 °F 30.13 in ENE 5.0 mph 10.0 mph 85 % 0.00 in 0 W/m2
22:55 45.1 °F 41.2 °F 30.13 in ENE 4.0 mph 9.0 mph 86 % 0.00 in 0 W/m2
23:00 45.0 °F 41.0 °F 30.13 in ENE 4.0 mph 8.0 mph 86 % 0.00 in 0 W/m2
23:05 45.0 °F 41.0 °F 30.13 in ENE 5.0 mph 10.0 mph 86 % 0.00 in 0 W/m2
23:10 44.8 °F 40.8 °F 30.13 in ENE 4.0 mph 10.0 mph 86 % 0.00 in 0 W/m2
23:11 44.8 °F 40.8 °F 30.13 in ENE 5.0 mph 10.0 mph 86 % 0.00 in 0 W/m2
23:16 44.6 °F 41.0 °F 30.13 in ENE 4.0 mph 8.0 mph 87 % 0.00 in 0 W/m2
23:21 44.6 °F 41.0 °F 30.13 in ENE 4.0 mph 10.0 mph 87 % 0.00 in 0 W/m2
23:26 44.4 °F 40.8 °F 30.12 in ENE 4.0 mph 10.0 mph 87 % 0.00 in 0 W/m2
23:31 44.4 °F 40.8 °F 30.12 in ENE 3.0 mph 8.0 mph 87 % 0.00 in 0 W/m2
23:36 44.2 °F 40.6 °F 30.12 in ENE 2.0 mph 6.0 mph 87 % 0.00 in 0 W/m2
23:41 44.2 °F 40.6 °F 30.12 in ENE 2.0 mph 6.0 mph 87 % 0.00 in 0 W/m2
23:46 44.1 °F 40.7 °F 30.12 in NE 1.0 mph 6.0 mph 88 % 0.00 in 0 W/m2
23:52 44.1 °F 40.7 °F 30.12 in NE 1.0 mph 6.0 mph 88 % 0.00 in 0 W/m2
23:57 43.9 °F 40.6 °F 30.12 in NE 3.0 mph 10.0 mph 88 % 0.00 in 0 W/m2
Delerius-Weather
Compliments of Weather Underground - 2.25 mb

Data updates at regular intervals.